PWSweather.com
Personal Weather Stations
Station Observations
MADWEATHER
MadeiraPT

MadeiraPT

Lat: 32.735, Lon: -17.194

Elevation: 1063

Station Type: Davis VantagePro2

Latest ConditionsUpdated 4:40:03 PM GMT Monday, Feb 8, 2016
Currently Today's Max Today's Min Today's Average
Temperature 63.2°F17.3°C 65.9°F18.8°C 55.3°F12.9°C 59.7°F15.4°C
Dew Point 54.7°F12.6°C 58.0°F14.4°C 50.5°F10.3°C 53.6°F12.0°C
Winds 0.1 mph WSW0.2 kmh WSW 7.2 mph WNW11.6 kmh WNW - 3.8 mph 6.1 kmh
Wind Gusts 1.0 mph1.6 kmh 12.0 mph19.3 kmh - -
Humidity 74% 85% 72% 80%
Pressure 30.44 in1030.8 mb 30.49 in1032.5 mb 30.41 in1029.8 mb -
Hour Temp Dew Point Humidity Winds Wind Gusts Pressure Precip Precip Rate Daily Precip Total
04:40 PM 63.2°F17.3°C 54.7°F12.6°C 74% 0.1 mph WSW0.2 kmh WSW 1.0 mph1.6 kmh 30.44 in1030.8 mb - 0.00 in0.0 mm 0.00 in0.0 mm
04:30 PM 63.1°F17.3°C 55.1°F12.8°C 75% 0.3 mph WSW0.5 kmh WSW 2.0 mph3.2 kmh 30.43 in1030.5 mb - 0.00 in0.0 mm 0.00 in0.0 mm
04:20 PM 63.2°F17.3°C 54.8°F12.7°C 74% 4.7 mph WSW7.6 kmh WSW 5.0 mph8.0 kmh 30.43 in1030.5 mb - 0.00 in0.0 mm 0.00 in0.0 mm
04:10 PM 63.6°F17.6°C 54.8°F12.7°C 73% 2.2 mph WSW3.5 kmh WSW 2.0 mph3.2 kmh 30.43 in1030.5 mb - 0.00 in0.0 mm 0.00 in0.0 mm
04:00 PM 64.1°F17.8°C 55.6°F13.1°C 74% 4.1 mph WSW6.6 kmh WSW 6.0 mph9.7 kmh 30.43 in1030.5 mb - 0.00 in0.0 mm 0.00 in0.0 mm
03:50 PM 64.4°F18.0°C 55.6°F13.1°C 73% 3.9 mph WSW6.3 kmh WSW 5.0 mph8.0 kmh 30.43 in1030.5 mb - 0.00 in0.0 mm 0.00 in0.0 mm
03:40 PM 64.4°F18.0°C 55.2°F12.9°C 72% 3.9 mph WSW6.3 kmh WSW 6.0 mph9.7 kmh 30.43 in1030.5 mb - 0.00 in0.0 mm 0.00 in0.0 mm
03:30 PM 64.6°F18.1°C 55.4°F13.0°C 72% 0.4 mph WSW0.6 kmh WSW 3.0 mph4.8 kmh 30.42 in1030.1 mb - 0.00 in0.0 mm 0.00 in0.0 mm
03:20 PM 65.3°F18.5°C 56.1°F13.4°C 72% 2.5 mph WSW4.0 kmh WSW 4.0 mph6.4 kmh 30.42 in1030.1 mb - 0.00 in0.0 mm 0.00 in0.0 mm
03:10 PM 65.9°F18.8°C 57.0°F13.9°C 73% 4.4 mph W7.1 kmh W 7.0 mph11.3 kmh 30.42 in1030.1 mb - 0.00 in0.0 mm 0.00 in0.0 mm
03:00 PM 65.3°F18.5°C 56.4°F13.6°C 73% 6.4 mph WNW10.3 kmh WNW 9.0 mph14.5 kmh 30.42 in1030.1 mb - 0.00 in0.0 mm 0.00 in0.0 mm
02:50 PM 65.4°F18.6°C 56.9°F13.8°C 74% 6.6 mph WNW10.6 kmh WNW 8.0 mph12.9 kmh 30.42 in1030.1 mb - 0.00 in0.0 mm 0.00 in0.0 mm
02:40 PM 64.9°F18.3°C 57.2°F14.0°C 76% 4.6 mph WNW7.4 kmh WNW 6.0 mph9.7 kmh 30.43 in1030.5 mb - 0.00 in0.0 mm 0.00 in0.0 mm
02:30 PM 63.6°F17.6°C 56.3°F13.5°C 77% 6.0 mph WNW9.7 kmh WNW 9.0 mph14.5 kmh 30.43 in1030.5 mb - 0.00 in0.0 mm 0.00 in0.0 mm
02:20 PM 63.5°F17.5°C 56.2°F13.4°C 77% 7.2 mph WNW11.6 kmh WNW 12.0 mph19.3 kmh 30.43 in1030.5 mb - 0.00 in0.0 mm 0.00 in0.0 mm
02:10 PM 63.5°F17.5°C 56.2°F13.4°C 77% 5.3 mph WNW8.5 kmh WNW 8.0 mph12.9 kmh 30.44 in1030.8 mb - 0.00 in0.0 mm 0.00 in0.0 mm
02:00 PM 63.4°F17.4°C 56.1°F13.4°C 77% 4.8 mph WNW7.7 kmh WNW 6.0 mph9.7 kmh 30.45 in1031.2 mb - 0.00 in0.0 mm 0.00 in0.0 mm
01:50 PM 63.9°F17.7°C 56.2°F13.4°C 76% 7.1 mph WNW11.4 kmh WNW 9.0 mph14.5 kmh 30.45 in1031.2 mb - 0.00 in0.0 mm 0.00 in0.0 mm
01:40 PM 64.1°F17.8°C 56.4°F13.6°C 76% 4.6 mph W7.4 kmh W 5.0 mph8.0 kmh 30.45 in1031.2 mb - 0.00 in0.0 mm 0.00 in0.0 mm
01:30 PM 64.0°F17.8°C 56.6°F13.7°C 77% 4.8 mph W7.7 kmh W 6.0 mph9.7 kmh 30.45 in1031.2 mb - 0.00 in0.0 mm 0.00 in0.0 mm
01:20 PM 64.7°F18.2°C 57.0°F13.9°C 76% 6.2 mph W10.0 kmh W 9.0 mph14.5 kmh 30.45 in1031.2 mb - 0.00 in0.0 mm 0.00 in0.0 mm
01:10 PM 65.2°F18.4°C 57.4°F14.1°C 76% 6.5 mph W10.5 kmh W 11.0 mph17.7 kmh 30.46 in1031.5 mb - 0.00 in0.0 mm 0.00 in0.0 mm
01:00 PM 65.7°F18.7°C 57.2°F14.0°C 74% 6.3 mph W10.1 kmh W 12.0 mph19.3 kmh 30.46 in1031.5 mb - 0.00 in0.0 mm 0.00 in0.0 mm
12:50 PM 65.1°F18.4°C 57.3°F14.1°C 76% 5.0 mph WNW8.0 kmh WNW 7.0 mph11.3 kmh 30.46 in1031.5 mb - 0.00 in0.0 mm 0.00 in0.0 mm
12:40 PM 64.2°F17.9°C 57.2°F14.0°C 78% 7.2 mph WNW11.6 kmh WNW 11.0 mph17.7 kmh 30.46 in1031.5 mb - 0.00 in0.0 mm 0.00 in0.0 mm
12:30 PM 63.4°F17.4°C 57.5°F14.2°C 81% 5.3 mph NW8.5 kmh NW 9.0 mph14.5 kmh 30.47 in1031.8 mb - 0.00 in0.0 mm 0.00 in0.0 mm
12:20 PM 63.2°F17.3°C 56.9°F13.8°C 80% 4.4 mph NW7.1 kmh NW 5.0 mph8.0 kmh 30.48 in1032.2 mb - 0.00 in0.0 mm 0.00 in0.0 mm
12:10 PM 63.0°F17.2°C 56.0°F13.3°C 78% 6.5 mph NW10.5 kmh NW 9.0 mph14.5 kmh 30.48 in1032.2 mb - 0.00 in0.0 mm 0.00 in0.0 mm
12:00 PM 62.8°F17.1°C 56.9°F13.8°C 81% 3.3 mph NW5.3 kmh NW 6.0 mph9.7 kmh 30.49 in1032.5 mb - 0.00 in0.0 mm 0.00 in0.0 mm
11:50 AM 62.6°F17.0°C 56.7°F13.7°C 81% 6.1 mph NNW9.8 kmh NNW 7.0 mph11.3 kmh 30.49 in1032.5 mb - 0.00 in0.0 mm 0.00 in0.0 mm
11:40 AM 62.7°F17.1°C 56.4°F13.6°C 80% 5.1 mph NNW8.2 kmh NNW 8.0 mph12.9 kmh 30.49 in1032.5 mb - 0.00 in0.0 mm 0.00 in0.0 mm
11:30 AM 63.2°F17.3°C 57.6°F14.2°C 82% 4.5 mph N7.2 kmh N 6.0 mph9.7 kmh 30.49 in1032.5 mb - 0.00 in0.0 mm 0.00 in0.0 mm
11:20 AM 62.7°F17.1°C 57.5°F14.2°C 83% 5.0 mph N8.0 kmh N 7.0 mph11.3 kmh 30.49 in1032.5 mb - 0.00 in0.0 mm 0.00 in0.0 mm
11:10 AM 62.6°F17.0°C 58.0°F14.4°C 85% 5.0 mph NNE8.0 kmh NNE 7.0 mph11.3 kmh 30.49 in1032.5 mb - 0.00 in0.0 mm 0.00 in0.0 mm
11:00 AM 62.3°F16.8°C 56.7°F13.7°C 82% 6.3 mph NE10.1 kmh NE 8.0 mph12.9 kmh 30.48 in1032.2 mb - 0.00 in0.0 mm 0.00 in0.0 mm
10:50 AM 62.4°F16.9°C 57.2°F14.0°C 83% 1.4 mph NE2.3 kmh NE 2.0 mph3.2 kmh 30.48 in1032.2 mb - 0.00 in0.0 mm 0.00 in0.0 mm
10:40 AM 62.5°F16.9°C 56.9°F13.8°C 82% 4.2 mph NE6.8 kmh NE 6.0 mph9.7 kmh 30.47 in1031.8 mb - 0.00 in0.0 mm 0.00 in0.0 mm
10:30 AM 62.1°F16.7°C 56.2°F13.4°C 81% 4.2 mph NE6.8 kmh NE 5.0 mph8.0 kmh 30.47 in1031.8 mb - 0.00 in0.0 mm 0.00 in0.0 mm
10:20 AM 62.1°F16.7°C 55.5°F13.1°C 79% 6.0 mph NE9.7 kmh NE 10.0 mph16.1 kmh 30.46 in1031.5 mb - 0.00 in0.0 mm 0.00 in0.0 mm
10:10 AM 62.2°F16.8°C 55.9°F13.3°C 80% 3.8 mph ENE6.1 kmh ENE 5.0 mph8.0 kmh 30.46 in1031.5 mb - 0.00 in0.0 mm 0.00 in0.0 mm
10:00 AM 61.0°F16.1°C 53.4°F11.9°C 76% 0.9 mph ENE1.4 kmh ENE -- 30.46 in1031.5 mb - 0.00 in0.0 mm 0.00 in0.0 mm
09:50 AM 59.9°F15.5°C 53.0°F11.7°C 78% 2.2 mph ENE3.5 kmh ENE 4.0 mph6.4 kmh 30.46 in1031.5 mb - 0.00 in0.0 mm 0.00 in0.0 mm
09:40 AM 58.6°F14.8°C 52.1°F11.2°C 79% 1.2 mph ENE1.9 kmh ENE 2.0 mph3.2 kmh 30.46 in1031.5 mb - 0.00 in0.0 mm 0.00 in0.0 mm
09:30 AM 58.2°F14.6°C 51.7°F10.9°C 79% 1.7 mph ENE2.7 kmh ENE 4.0 mph6.4 kmh 30.46 in1031.5 mb - 0.00 in0.0 mm 0.00 in0.0 mm
09:20 AM 58.0°F14.4°C 51.9°F11.1°C 80% 1.8 mph ENE2.9 kmh ENE 3.0 mph4.8 kmh 30.46 in1031.5 mb - 0.00 in0.0 mm 0.00 in0.0 mm
09:10 AM 57.8°F14.3°C 52.0°F11.1°C 81% 2.3 mph ENE3.7 kmh ENE 4.0 mph6.4 kmh 30.46 in1031.5 mb - 0.00 in0.0 mm 0.00 in0.0 mm
09:00 AM 57.6°F14.2°C 51.8°F11.0°C 81% 2.2 mph ENE3.5 kmh ENE 5.0 mph8.0 kmh 30.46 in1031.5 mb - 0.00 in0.0 mm 0.00 in0.0 mm
08:50 AM 57.3°F14.1°C 51.9°F11.1°C 82% 2.2 mph ENE3.5 kmh ENE 4.0 mph6.4 kmh 30.46 in1031.5 mb - 0.00 in0.0 mm 0.00 in0.0 mm
08:40 AM 57.0°F13.9°C 51.5°F10.8°C 82% 4.6 mph ENE7.4 kmh ENE 6.0 mph9.7 kmh 30.45 in1031.2 mb - 0.00 in0.0 mm 0.00 in0.0 mm
08:30 AM 57.0°F13.9°C 51.2°F10.7°C 81% 4.0 mph ENE6.4 kmh ENE 5.0 mph8.0 kmh 30.45 in1031.2 mb - 0.00 in0.0 mm 0.00 in0.0 mm
08:20 AM 56.9°F13.8°C 51.1°F10.6°C 81% 4.5 mph ENE7.2 kmh ENE 5.0 mph8.0 kmh 30.45 in1031.2 mb - 0.00 in0.0 mm 0.00 in0.0 mm
08:10 AM 57.0°F13.9°C 50.9°F10.5°C 80% 4.2 mph ENE6.8 kmh ENE 6.0 mph9.7 kmh 30.45 in1031.2 mb - 0.00 in0.0 mm 0.00 in0.0 mm
08:00 AM 57.1°F13.9°C 51.0°F10.6°C 80% 3.9 mph ENE6.3 kmh ENE 5.0 mph8.0 kmh 30.44 in1030.8 mb - 0.00 in0.0 mm 0.00 in0.0 mm
07:50 AM 57.3°F14.1°C 51.5°F10.8°C 81% 4.1 mph ENE6.6 kmh ENE 5.0 mph8.0 kmh 30.45 in1031.2 mb - 0.00 in0.0 mm 0.00 in0.0 mm
07:40 AM 57.3°F14.1°C 51.5°F10.8°C 81% 3.9 mph ENE6.3 kmh ENE 5.0 mph8.0 kmh 30.45 in1031.2 mb - 0.00 in0.0 mm 0.00 in0.0 mm
07:30 AM 57.3°F14.1°C 51.5°F10.8°C 81% 4.1 mph ENE6.6 kmh ENE 6.0 mph9.7 kmh 30.45 in1031.2 mb - 0.00 in0.0 mm 0.00 in0.0 mm
07:20 AM 57.3°F14.1°C 51.5°F10.8°C 81% 4.4 mph ENE7.1 kmh ENE 6.0 mph9.7 kmh 30.45 in1031.2 mb - 0.00 in0.0 mm 0.00 in0.0 mm
07:10 AM 57.2°F14.0°C 51.4°F10.8°C 81% 4.8 mph ENE7.7 kmh ENE 6.0 mph9.7 kmh 30.45 in1031.2 mb - 0.00 in0.0 mm 0.00 in0.0 mm
07:00 AM 57.2°F14.0°C 51.4°F10.8°C 81% 4.0 mph E6.4 kmh E 7.0 mph11.3 kmh 30.45 in1031.2 mb - 0.00 in0.0 mm 0.00 in0.0 mm
06:50 AM 57.1°F13.9°C 51.3°F10.7°C 81% 5.3 mph E8.5 kmh E 9.0 mph14.5 kmh 30.45 in1031.2 mb - 0.00 in0.0 mm 0.00 in0.0 mm
06:40 AM 57.2°F14.0°C 51.4°F10.8°C 81% 4.2 mph SE6.8 kmh SE 9.0 mph14.5 kmh 30.45 in1031.2 mb - 0.00 in0.0 mm 0.00 in0.0 mm
06:30 AM 57.4°F14.1°C 51.6°F10.9°C 81% 2.4 mph SE3.9 kmh SE 6.0 mph9.7 kmh 30.44 in1030.8 mb - 0.00 in0.0 mm 0.00 in0.0 mm
06:20 AM 57.5°F14.2°C 51.7°F10.9°C 81% 1.1 mph SE1.8 kmh SE 4.0 mph6.4 kmh 30.44 in1030.8 mb - 0.00 in0.0 mm 0.00 in0.0 mm
06:10 AM 57.5°F14.2°C 52.0°F11.1°C 82% 3.4 mph SE5.5 kmh SE 5.0 mph8.0 kmh 30.43 in1030.5 mb - 0.00 in0.0 mm 0.00 in0.0 mm
06:00 AM 57.5°F14.2°C 52.0°F11.1°C 82% 3.0 mph SE4.8 kmh SE 5.0 mph8.0 kmh 30.43 in1030.5 mb - 0.00 in0.0 mm 0.00 in0.0 mm
05:50 AM 57.3°F14.1°C 52.2°F11.2°C 83% 2.8 mph SE4.5 kmh SE 4.0 mph6.4 kmh 30.43 in1030.5 mb - 0.00 in0.0 mm 0.00 in0.0 mm
05:40 AM 57.1°F13.9°C 52.3°F11.3°C 84% 4.6 mph SE7.4 kmh SE 6.0 mph9.7 kmh 30.44 in1030.8 mb - 0.00 in0.0 mm 0.00 in0.0 mm
05:30 AM 56.8°F13.8°C 52.1°F11.2°C 84% 4.1 mph SE6.6 kmh SE 5.0 mph8.0 kmh 30.44 in1030.8 mb - 0.00 in0.0 mm 0.00 in0.0 mm
05:20 AM 56.4°F13.6°C 51.9°F11.1°C 85% 4.2 mph SE6.8 kmh SE 5.0 mph8.0 kmh 30.44 in1030.8 mb - 0.00 in0.0 mm 0.00 in0.0 mm
05:10 AM 56.0°F13.3°C 51.2°F10.7°C 84% 3.6 mph SE5.8 kmh SE 5.0 mph8.0 kmh 30.44 in1030.8 mb - 0.00 in0.0 mm 0.00 in0.0 mm
05:00 AM 55.9°F13.3°C 51.1°F10.6°C 84% 4.6 mph SE7.4 kmh SE 6.0 mph9.7 kmh 30.44 in1030.8 mb - 0.00 in0.0 mm 0.00 in0.0 mm
04:50 AM 55.7°F13.2°C 51.0°F10.6°C 84% 3.8 mph SE6.1 kmh SE 5.0 mph8.0 kmh 30.43 in1030.5 mb - 0.00 in0.0 mm 0.00 in0.0 mm
04:40 AM 55.4°F13.0°C 50.6°F10.3°C 84% 3.9 mph SE6.3 kmh SE 5.0 mph8.0 kmh 30.43 in1030.5 mb - 0.00 in0.0 mm 0.00 in0.0 mm
04:30 AM 55.3°F12.9°C 50.6°F10.3°C 84% 2.0 mph SE3.2 kmh SE 4.0 mph6.4 kmh 30.42 in1030.1 mb - 0.00 in0.0 mm 0.00 in0.0 mm
04:20 AM 55.6°F13.1°C 50.5°F10.3°C 83% 4.0 mph SE6.4 kmh SE 5.0 mph8.0 kmh 30.42 in1030.1 mb - 0.00 in0.0 mm 0.00 in0.0 mm
04:10 AM 56.1°F13.4°C 50.7°F10.4°C 82% 4.7 mph SE7.6 kmh SE 6.0 mph9.7 kmh 30.41 in1029.8 mb - 0.00 in0.0 mm 0.00 in0.0 mm
04:00 AM 56.5°F13.6°C 51.1°F10.6°C 82% 4.8 mph SE7.7 kmh SE 6.0 mph9.7 kmh 30.41 in1029.8 mb - 0.00 in0.0 mm 0.00 in0.0 mm
03:50 AM 57.0°F13.9°C 51.6°F10.9°C 82% 4.0 mph SE6.4 kmh SE 5.0 mph8.0 kmh 30.42 in1030.1 mb - 0.00 in0.0 mm 0.00 in0.0 mm
03:40 AM 57.3°F14.1°C 51.9°F11.1°C 82% 2.8 mph SE4.5 kmh SE 3.0 mph4.8 kmh 30.42 in1030.1 mb - 0.00 in0.0 mm 0.00 in0.0 mm
03:30 AM 57.4°F14.1°C 51.9°F11.1°C 82% 2.8 mph SE4.5 kmh SE 4.0 mph6.4 kmh 30.43 in1030.5 mb - 0.00 in0.0 mm 0.00 in0.0 mm
03:20 AM 57.4°F14.1°C 51.9°F11.1°C 82% 3.2 mph SE5.1 kmh SE 5.0 mph8.0 kmh 30.43 in1030.5 mb - 0.00 in0.0 mm 0.00 in0.0 mm
03:10 AM 57.2°F14.0°C 52.1°F11.2°C 83% 3.2 mph SE5.1 kmh SE 4.0 mph6.4 kmh 30.44 in1030.8 mb - 0.00 in0.0 mm 0.00 in0.0 mm
03:00 AM 57.1°F13.9°C 51.9°F11.1°C 83% 3.3 mph SE5.3 kmh SE 4.0 mph6.4 kmh 30.45 in1031.2 mb - 0.00 in0.0 mm 0.00 in0.0 mm
02:50 AM 56.8°F13.8°C 51.7°F10.9°C 83% 2.0 mph SE3.2 kmh SE 3.0 mph4.8 kmh 30.45 in1031.2 mb - 0.00 in0.0 mm 0.00 in0.0 mm
02:40 AM 57.0°F13.9°C 51.6°F10.9°C 82% 3.6 mph SE5.8 kmh SE 4.0 mph6.4 kmh 30.44 in1030.8 mb - 0.00 in0.0 mm 0.00 in0.0 mm
02:30 AM 57.3°F14.1°C 52.2°F11.2°C 83% 3.7 mph SE6.0 kmh SE 4.0 mph6.4 kmh 30.44 in1030.8 mb - 0.00 in0.0 mm 0.00 in0.0 mm
02:20 AM 57.3°F14.1°C 52.2°F11.2°C 83% 3.2 mph SE5.1 kmh SE 4.0 mph6.4 kmh 30.44 in1030.8 mb - 0.00 in0.0 mm 0.00 in0.0 mm
02:10 AM 57.2°F14.0°C 52.1°F11.2°C 83% 3.6 mph SE5.8 kmh SE 4.0 mph6.4 kmh 30.44 in1030.8 mb - 0.00 in0.0 mm 0.00 in0.0 mm
02:00 AM 57.2°F14.0°C 52.4°F11.3°C 84% 3.4 mph SE5.5 kmh SE 4.0 mph6.4 kmh 30.43 in1030.5 mb - 0.00 in0.0 mm 0.00 in0.0 mm
01:50 AM 57.0°F13.9°C 52.2°F11.2°C 84% 3.3 mph SE5.3 kmh SE 4.0 mph6.4 kmh 30.44 in1030.8 mb - 0.00 in0.0 mm 0.00 in0.0 mm
01:40 AM 56.9°F13.8°C 52.1°F11.2°C 84% 3.0 mph SE4.8 kmh SE 4.0 mph6.4 kmh 30.45 in1031.2 mb - 0.00 in0.0 mm 0.00 in0.0 mm
01:30 AM 56.8°F13.8°C 52.3°F11.3°C 85% 3.0 mph SE4.8 kmh SE 4.0 mph6.4 kmh 30.45 in1031.2 mb - 0.00 in0.0 mm 0.00 in0.0 mm
01:20 AM 56.6°F13.7°C 52.1°F11.2°C 85% Calm Calm -- 30.45 in1031.2 mb - 0.00 in0.0 mm 0.00 in0.0 mm
01:10 AM 56.5°F13.6°C 51.7°F10.9°C 84% 3.1 mph SE5.0 kmh SE 4.0 mph6.4 kmh 30.45 in1031.2 mb - 0.00 in0.0 mm 0.00 in0.0 mm
01:00 AM 56.6°F13.7°C 51.9°F11.1°C 84% 3.3 mph SE5.3 kmh SE 4.0 mph6.4 kmh 30.45 in1031.2 mb - 0.00 in0.0 mm 0.00 in0.0 mm
12:50 AM 56.8°F13.8°C 52.0°F11.1°C 84% 3.2 mph SE5.1 kmh SE 4.0 mph6.4 kmh 30.45 in1031.2 mb - 0.00 in0.0 mm 0.00 in0.0 mm
12:40 AM 56.8°F13.8°C 52.0°F11.1°C 84% 2.3 mph SE3.7 kmh SE 3.0 mph4.8 kmh 30.45 in1031.2 mb - 0.00 in0.0 mm 0.00 in0.0 mm
12:30 AM 56.9°F13.8°C 52.1°F11.2°C 84% 0.3 mph SE0.5 kmh SE -- 30.45 in1031.2 mb - 0.00 in0.0 mm 0.00 in0.0 mm
12:20 AM 56.9°F13.8°C 52.1°F11.2°C 84% 2.0 mph SE3.2 kmh SE 3.0 mph4.8 kmh 30.45 in1031.2 mb - 0.00 in0.0 mm 0.00 in0.0 mm
12:10 AM 56.8°F13.8°C 52.0°F11.1°C 84% 3.1 mph SE5.0 kmh SE 4.0 mph6.4 kmh 30.45 in1031.2 mb - 0.00 in0.0 mm 0.00 in0.0 mm
12:00 AM 56.9°F13.8°C 52.2°F11.2°C 84% 3.5 mph SE5.6 kmh SE 5.0 mph8.0 kmh 30.45 in1031.2 mb - 0.00 in0.0 mm 0.00 in0.0 mm